createdAt,value
2022-10-13T00:01:18.463Z,10.60
2022-10-13T00:03:49.402Z,10.77
2022-10-13T00:06:25.389Z,10.80
2022-10-13T00:08:52.373Z,11.15
2022-10-13T00:11:25.172Z,10.80
2022-10-13T00:13:59.988Z,11.13
2022-10-13T00:16:29.793Z,10.40
2022-10-13T00:18:56.601Z,10.13
2022-10-13T00:21:26.227Z,10.25
2022-10-13T00:23:57.369Z,10.77
2022-10-13T00:26:25.939Z,10.52
2022-10-13T00:28:53.821Z,10.40
2022-10-13T00:31:29.108Z,10.68
2022-10-13T00:34:01.335Z,10.75
2022-10-13T00:36:29.396Z,10.45
2022-10-13T00:38:57.046Z,11.48
2022-10-13T00:41:23.603Z,10.80
2022-10-13T00:44:00.305Z,10.07
2022-10-13T00:46:32.286Z,10.45
2022-10-13T00:49:04.330Z,10.43
2022-10-13T00:51:34.928Z,10.30
2022-10-13T00:54:07.294Z,10.45
2022-10-13T00:56:37.738Z,10.70
2022-10-13T00:59:11.974Z,10.73
2022-10-13T01:01:40.998Z,10.75
2022-10-13T01:04:11.897Z,11.45
2022-10-13T01:06:38.451Z,11.50
2022-10-13T01:09:07.811Z,10.55
2022-10-13T01:11:52.587Z,10.77
2022-10-13T01:17:25.980Z,10.90
2022-10-13T01:20:14.204Z,9.70
2022-10-13T01:23:00.412Z,10.45
2022-10-13T01:25:31.450Z,10.18
2022-10-13T01:28:03.795Z,10.38
2022-10-13T01:30:37.667Z,10.88
2022-10-13T01:33:19.886Z,10.18
2022-10-13T01:36:11.754Z,10.05
2022-10-13T01:39:11.642Z,10.43
2022-10-13T01:41:46.457Z,10.50
2022-10-13T01:44:45.362Z,10.40
2022-10-13T01:47:15.653Z,10.68
2022-10-13T01:49:45.136Z,10.40
2022-10-13T01:52:17.960Z,10.50
2022-10-13T01:54:53.998Z,10.52
2022-10-13T01:57:33.121Z,10.13
2022-10-13T02:00:16.603Z,10.75
2022-10-13T02:02:51.703Z,10.02
2022-10-13T02:05:27.105Z,10.05
2022-10-13T02:10:48.118Z,9.65
2022-10-13T02:13:17.671Z,9.77
2022-10-13T02:15:53.258Z,9.93
2022-10-13T02:18:23.758Z,10.52
2022-10-13T02:20:51.049Z,9.07
2022-10-13T02:23:18.779Z,10.73
2022-10-13T02:25:50.971Z,9.68
2022-10-13T02:28:18.779Z,10.63
2022-10-13T02:30:46.698Z,10.68
2022-10-13T02:33:14.418Z,10.27
2022-10-13T02:35:41.982Z,10.23
2022-10-13T02:38:08.967Z,10.05
2022-10-13T02:40:35.483Z,10.13
2022-10-13T02:43:02.365Z,9.98
2022-10-13T02:45:28.878Z,9.98
2022-10-13T02:47:55.573Z,10.88
2022-10-13T02:50:22.082Z,9.82
2022-10-13T02:52:50.383Z,9.10
2022-10-13T02:55:17.785Z,10.10
2022-10-13T02:57:45.574Z,10.88
2022-10-13T03:00:12.704Z,10.15
2022-10-13T03:02:39.310Z,11.00
2022-10-13T03:05:10.605Z,9.82
2022-10-13T03:07:37.330Z,9.98
2022-10-13T03:10:05.157Z,10.00
2022-10-13T03:12:31.726Z,11.18
2022-10-13T03:15:22.858Z,10.30
2022-10-13T03:17:49.460Z,10.15
2022-10-13T03:20:16.227Z,10.90
2022-10-13T03:22:46.081Z,10.27
2022-10-13T03:25:16.059Z,9.50
2022-10-13T03:27:43.306Z,10.02
2022-10-13T03:30:10.576Z,10.32
2022-10-13T03:32:38.955Z,10.60
2022-10-13T03:35:09.617Z,9.07
2022-10-13T03:37:36.273Z,9.23
2022-10-13T03:40:02.999Z,9.57
2022-10-13T03:42:29.498Z,9.77
2022-10-13T03:45:00.039Z,9.65
2022-10-13T03:47:26.594Z,10.13
2022-10-13T03:49:55.131Z,10.10
2022-10-13T03:52:22.887Z,9.13
2022-10-13T03:54:51.442Z,10.30
2022-10-13T03:57:17.934Z,9.57
2022-10-13T03:59:44.410Z,9.25
2022-10-13T04:02:10.999Z,9.48
2022-10-13T04:04:40.340Z,10.38
2022-10-13T04:07:07.946Z,9.77
2022-10-13T04:09:34.714Z,9.30
2022-10-13T04:12:01.179Z,9.93
2022-10-13T04:14:28.983Z,9.10
2022-10-13T04:17:01.866Z,9.65
2022-10-13T04:19:28.426Z,9.10
2022-10-13T04:21:54.901Z,9.15
2022-10-13T04:24:22.345Z,10.30
2022-10-13T04:26:48.790Z,8.93
2022-10-13T04:29:15.311Z,9.57
2022-10-13T04:31:43.858Z,10.25
2022-10-13T04:34:12.625Z,10.40
2022-10-13T04:36:39.148Z,9.00
2022-10-13T04:39:05.645Z,9.77
2022-10-13T04:41:33.001Z,9.10
2022-10-13T04:44:03.317Z,9.05
2022-10-13T04:46:29.875Z,9.13
2022-10-13T04:48:57.070Z,9.18
2022-10-13T04:51:28.795Z,9.30
2022-10-13T04:54:01.443Z,9.80
2022-10-13T04:56:28.198Z,9.73
2022-10-13T04:58:59.870Z,10.20
2022-10-13T05:01:26.704Z,10.13
2022-10-13T05:04:01.138Z,9.50
2022-10-13T05:06:30.559Z,9.93
2022-10-13T05:08:57.501Z,10.50
2022-10-13T05:11:26.504Z,10.27
2022-10-13T05:13:57.722Z,10.13
2022-10-13T05:16:25.066Z,10.43
2022-10-13T05:18:53.983Z,9.27
2022-10-13T05:21:26.229Z,10.40
2022-10-13T05:23:56.253Z,9.70
2022-10-13T05:26:28.688Z,9.25
2022-10-13T05:28:57.195Z,10.10
2022-10-13T05:31:27.066Z,11.32
2022-10-13T05:33:56.179Z,10.13
2022-10-13T05:36:26.509Z,11.00
2022-10-13T05:38:54.831Z,10.68
2022-10-13T05:41:23.177Z,9.60
2022-10-13T05:43:58.925Z,9.68
2022-10-13T05:46:25.602Z,11.15
2022-10-13T05:48:52.208Z,11.27
2022-10-13T05:51:28.165Z,10.70
2022-10-13T05:54:20.184Z,11.10
2022-10-13T05:56:55.795Z,10.50
2022-10-13T05:59:27.070Z,11.15
2022-10-13T06:01:54.590Z,11.38
2022-10-13T06:04:41.653Z,10.85
2022-10-13T06:07:09.781Z,11.60
2022-10-13T06:09:39.740Z,10.63
2022-10-13T06:12:07.691Z,11.07
2022-10-13T06:14:35.450Z,11.27
2022-10-13T06:17:05.769Z,11.27
2022-10-13T06:19:32.360Z,11.25
2022-10-13T06:22:07.046Z,11.43
2022-10-13T06:24:35.287Z,11.65
2022-10-13T06:27:03.664Z,12.13
2022-10-13T06:29:30.193Z,11.13
2022-10-13T06:31:56.677Z,12.02
2022-10-13T06:34:23.150Z,11.48
2022-10-13T06:36:49.622Z,12.85
2022-10-13T06:39:16.088Z,11.55
2022-10-13T06:41:42.559Z,11.32
2022-10-13T06:44:12.917Z,11.30
2022-10-13T06:46:39.383Z,11.23
2022-10-13T06:49:05.897Z,11.65
2022-10-13T06:51:32.421Z,11.35
2022-10-13T06:54:03.606Z,12.07
2022-10-13T06:56:30.773Z,11.52
2022-10-13T06:58:58.633Z,10.85
2022-10-13T07:01:25.173Z,12.70
2022-10-13T07:03:54.814Z,11.52
2022-10-13T07:06:21.493Z,11.90
2022-10-13T07:08:50.409Z,12.57
2022-10-13T07:11:18.562Z,11.55
2022-10-13T07:13:54.288Z,11.60
2022-10-13T07:16:20.772Z,11.75
2022-10-13T07:18:48.209Z,11.27
2022-10-13T07:21:14.926Z,10.95
2022-10-13T07:23:41.387Z,11.88
2022-10-13T07:26:09.970Z,11.38
2022-10-13T07:28:37.365Z,11.30
2022-10-13T07:31:30.050Z,11.85
2022-10-13T07:34:01.712Z,11.15
2022-10-13T07:36:28.205Z,11.82
2022-10-13T07:38:54.662Z,11.65
2022-10-13T07:41:21.125Z,11.02
2022-10-13T07:43:49.687Z,11.10
2022-10-13T07:46:16.222Z,11.57
2022-10-13T07:48:42.740Z,11.70
2022-10-13T07:51:12.707Z,12.90
2022-10-13T07:53:40.570Z,11.57
2022-10-13T07:56:09.252Z,12.02
2022-10-13T07:58:40.216Z,11.32
2022-10-13T08:01:07.732Z,11.75
2022-10-13T08:03:38.398Z,11.30
2022-10-13T08:06:05.899Z,12.43
2022-10-13T08:08:33.693Z,11.68
2022-10-13T08:11:05.427Z,11.38
2022-10-13T08:13:34.353Z,12.27
2022-10-13T08:16:12.604Z,11.45
2022-10-13T08:18:39.208Z,12.10
2022-10-13T08:21:39.220Z,11.93
2022-10-13T08:24:02.222Z,11.48
2022-10-13T08:26:29.121Z,11.65
2022-10-13T08:29:16.829Z,10.90
2022-10-13T08:31:42.947Z,11.60
2022-10-13T08:34:11.279Z,10.88
2022-10-13T08:36:38.768Z,11.57
2022-10-13T08:39:05.538Z,11.77
2022-10-13T08:41:37.919Z,11.75
2022-10-13T08:47:22.963Z,11.25
2022-10-13T08:49:49.766Z,12.15
2022-10-13T08:52:22.902Z,11.07
2022-10-13T08:54:53.293Z,11.18
2022-10-13T08:57:21.200Z,11.40
2022-10-13T08:59:48.601Z,11.73
2022-10-13T09:02:29.848Z,12.07
2022-10-13T09:05:00.858Z,11.20
2022-10-13T09:07:32.331Z,11.45
2022-10-13T09:09:58.794Z,10.35
2022-10-13T09:12:27.595Z,10.93
2022-10-13T09:15:01.428Z,11.02
2022-10-13T09:17:29.480Z,11.25
2022-10-13T09:20:16.186Z,11.07
2022-10-13T09:22:43.586Z,9.77
2022-10-13T09:25:21.277Z,11.18
2022-10-13T09:27:59.583Z,10.77
2022-10-13T09:30:41.511Z,10.57
2022-10-13T09:33:08.648Z,10.65
2022-10-13T09:35:41.575Z,10.23
2022-10-13T09:38:13.241Z,10.18
2022-10-13T09:40:40.903Z,10.77
2022-10-13T09:43:27.517Z,10.00
2022-10-13T09:45:54.959Z,10.10
2022-10-13T09:48:26.915Z,10.45
2022-10-13T09:50:56.098Z,10.35
2022-10-13T09:53:37.983Z,10.23
2022-10-13T09:56:26.169Z,9.77
2022-10-13T09:59:07.737Z,10.43
2022-10-13T10:01:39.596Z,9.50
2022-10-13T10:04:17.996Z,8.80
2022-10-13T10:06:46.138Z,9.40
2022-10-13T10:09:15.570Z,9.68
2022-10-13T10:11:45.265Z,10.00
2022-10-13T10:14:29.637Z,9.23
2022-10-13T10:17:06.102Z,10.05
2022-10-13T10:19:43.297Z,9.82
2022-10-13T10:22:09.767Z,9.48
2022-10-13T10:24:49.349Z,9.27
2022-10-13T10:27:30.457Z,8.65
2022-10-13T10:30:06.556Z,9.40
2022-10-13T10:32:51.196Z,9.70
2022-10-13T10:35:40.495Z,9.27
2022-10-13T10:38:15.906Z,9.15
2022-10-13T10:41:00.960Z,10.40
2022-10-13T10:44:01.696Z,9.60
2022-10-13T10:46:32.517Z,10.27
2022-10-13T10:49:02.766Z,9.57
2022-10-13T10:51:36.654Z,10.35
2022-10-13T10:54:46.609Z,10.32
2022-10-13T10:57:33.388Z,9.63
2022-10-13T11:00:14.175Z,9.48
2022-10-13T11:02:45.153Z,9.95
2022-10-13T11:05:12.485Z,9.68
2022-10-13T11:07:38.948Z,10.40
2022-10-13T11:10:16.302Z,10.07
2022-10-13T11:12:53.063Z,10.65
2022-10-13T11:15:23.782Z,10.15
2022-10-13T11:17:50.836Z,10.15
2022-10-13T11:20:18.006Z,10.30
2022-10-13T11:22:59.703Z,10.57
2022-10-13T11:25:43.745Z,10.63
2022-10-13T11:28:22.760Z,10.13
2022-10-13T11:30:50.564Z,10.85
2022-10-13T11:33:39.198Z,10.48
2022-10-13T11:36:43.347Z,10.52
2022-10-13T11:39:28.595Z,10.43
2022-10-13T11:42:06.719Z,11.27
2022-10-13T11:45:14.656Z,10.70
2022-10-13T11:47:54.018Z,10.50
2022-10-13T11:50:49.470Z,10.43
2022-10-13T11:53:21.654Z,10.65
2022-10-13T11:55:58.480Z,10.48
2022-10-13T11:58:30.379Z,11.80
2022-10-13T12:01:03.094Z,12.70
2022-10-13T12:04:12.780Z,11.60
2022-10-13T12:06:40.394Z,12.95
2022-10-13T12:09:21.109Z,13.40
2022-10-13T12:11:57.052Z,13.27
2022-10-13T12:14:32.494Z,13.88
2022-10-13T12:17:00.550Z,12.30
2022-10-13T12:19:29.411Z,12.02
2022-10-13T12:22:01.635Z,11.88
2022-10-13T12:24:30.715Z,12.50
2022-10-13T12:26:58.617Z,12.23
2022-10-13T12:29:27.830Z,11.23
2022-10-13T12:31:58.081Z,11.32
2022-10-13T12:34:32.153Z,11.18
2022-10-13T12:37:05.531Z,11.55
2022-10-13T12:39:34.955Z,9.73
2022-10-13T12:42:03.430Z,9.30
2022-10-13T12:44:34.477Z,10.07
2022-10-13T12:47:03.713Z,10.13
2022-10-13T12:49:32.865Z,9.52
2022-10-13T12:52:19.244Z,10.20
2022-10-13T12:54:54.340Z,9.55
2022-10-13T12:57:22.930Z,10.80
2022-10-13T12:59:49.498Z,10.35
2022-10-13T13:02:19.117Z,9.70
2022-10-13T13:04:50.700Z,10.52
2022-10-13T13:07:37.068Z,9.98
2022-10-13T13:10:15.800Z,9.68
2022-10-13T13:12:43.071Z,9.73
2022-10-13T13:15:24.517Z,10.13
2022-10-13T13:17:58.455Z,10.15
2022-10-13T13:20:34.687Z,10.68
2022-10-13T13:23:01.266Z,10.82
2022-10-13T13:25:27.889Z,10.02
2022-10-13T13:27:54.754Z,10.27
2022-10-13T13:30:23.599Z,10.38
2022-10-13T13:32:51.001Z,10.68
2022-10-13T13:35:17.695Z,11.00
2022-10-13T13:37:49.533Z,10.02
2022-10-13T13:40:21.659Z,10.05
2022-10-13T13:42:48.158Z,10.32
2022-10-13T13:45:16.362Z,10.35
2022-10-13T13:47:43.211Z,11.07
2022-10-13T13:50:20.655Z,11.23
2022-10-13T13:52:55.879Z,11.05
2022-10-13T13:55:27.954Z,10.85
2022-10-13T13:57:54.432Z,10.88
2022-10-13T14:00:22.198Z,10.50
2022-10-13T14:02:54.973Z,11.57
2022-10-13T14:05:23.564Z,12.23
2022-10-13T14:07:53.156Z,11.82
2022-10-13T14:10:19.618Z,10.90
2022-10-13T14:12:46.355Z,11.68
2022-10-13T14:15:12.902Z,11.05
2022-10-13T14:17:39.358Z,12.40
2022-10-13T14:20:06.410Z,11.60
2022-10-13T14:22:38.728Z,10.88
2022-10-13T14:25:06.784Z,11.50
2022-10-13T14:27:34.911Z,10.73
2022-10-13T14:30:01.955Z,11.40
2022-10-13T14:32:28.529Z,11.25
2022-10-13T14:34:56.875Z,11.52
2022-10-13T14:37:26.701Z,10.85
2022-10-13T14:39:55.602Z,10.90
2022-10-13T14:42:22.130Z,9.75
2022-10-13T14:44:53.004Z,10.70
2022-10-13T14:47:19.885Z,10.95
2022-10-13T14:49:46.580Z,11.00
2022-10-13T14:52:13.070Z,10.07
2022-10-13T14:54:44.552Z,10.57
2022-10-13T14:57:16.257Z,9.88
2022-10-13T14:59:43.846Z,10.35
2022-10-13T15:02:11.488Z,10.30
2022-10-13T15:04:40.566Z,10.43
2022-10-13T15:07:07.015Z,10.73
2022-10-13T15:09:52.151Z,9.88
2022-10-13T15:12:22.755Z,9.73
2022-10-13T15:14:49.502Z,9.68
2022-10-13T15:17:15.996Z,9.10
2022-10-13T15:19:42.445Z,10.57
2022-10-13T15:22:09.577Z,10.27
2022-10-13T15:24:36.910Z,9.35
2022-10-13T15:27:03.459Z,9.82
2022-10-13T15:29:31.786Z,9.73
2022-10-13T15:32:11.818Z,10.40
2022-10-13T15:34:42.877Z,10.52
2022-10-13T15:37:09.357Z,10.95
2022-10-13T15:39:35.898Z,10.82
2022-10-13T15:42:02.898Z,11.13
2022-10-13T15:44:57.307Z,10.43
2022-10-13T15:47:20.302Z,11.40
2022-10-13T15:49:46.775Z,11.63
2022-10-13T15:52:13.392Z,11.48
2022-10-13T15:54:40.892Z,12.15
2022-10-13T15:57:08.061Z,11.82
2022-10-13T15:59:34.566Z,13.15
2022-10-13T16:02:01.027Z,13.65
2022-10-13T16:04:33.495Z,13.18
2022-10-13T16:07:02.973Z,13.32
2022-10-13T16:09:29.588Z,12.38
2022-10-13T16:11:56.078Z,12.23
2022-10-13T16:14:25.677Z,12.32
2022-10-13T16:16:52.454Z,13.20
2022-10-13T16:19:19.027Z,11.80
2022-10-13T16:21:46.803Z,13.05
2022-10-13T16:24:18.017Z,12.60
2022-10-13T16:26:44.529Z,11.93
2022-10-13T16:29:11.018Z,12.80
2022-10-13T16:31:37.532Z,13.60
2022-10-13T16:34:04.870Z,12.73
2022-10-13T16:36:31.442Z,13.05
2022-10-13T16:38:57.977Z,13.27
2022-10-13T16:41:24.428Z,12.63
2022-10-13T16:43:54.253Z,12.68
2022-10-13T16:46:21.150Z,12.35
2022-10-13T16:48:47.946Z,11.90
2022-10-13T16:51:17.219Z,12.52
2022-10-13T16:53:50.016Z,12.63
2022-10-13T16:56:21.826Z,12.43
2022-10-13T16:58:54.461Z,12.18
2022-10-13T17:01:21.685Z,11.98
2022-10-13T17:04:08.260Z,11.57
2022-10-13T17:06:38.525Z,11.95
2022-10-13T17:09:05.345Z,12.05
2022-10-13T17:11:34.143Z,11.40
2022-10-13T17:14:05.606Z,12.75
2022-10-13T17:16:33.063Z,11.68
2022-10-13T17:18:59.778Z,12.18
2022-10-13T17:21:38.612Z,14.15
2022-10-13T17:24:11.594Z,17.33
2022-10-13T17:26:38.639Z,15.65
2022-10-13T17:29:05.114Z,14.85
2022-10-13T17:31:31.614Z,12.68
2022-10-13T17:34:02.392Z,12.70
2022-10-13T17:36:31.831Z,12.27
2022-10-13T17:39:06.207Z,14.65
2022-10-13T17:41:39.377Z,15.52
2022-10-13T17:44:06.731Z,15.63
2022-10-13T17:46:38.303Z,13.90
2022-10-13T17:49:07.128Z,11.57
2022-10-13T17:51:33.992Z,11.48
2022-10-13T17:54:01.271Z,11.68
2022-10-13T17:56:28.993Z,11.88
2022-10-13T17:58:56.638Z,11.30
2022-10-13T18:01:26.497Z,12.13
2022-10-13T18:03:59.706Z,11.35
2022-10-13T18:06:37.853Z,12.98
2022-10-13T18:09:06.221Z,12.65
2022-10-13T18:11:33.896Z,13.05
2022-10-13T18:14:04.463Z,13.70
2022-10-13T18:16:31.017Z,13.90
2022-10-13T18:18:57.485Z,14.73
2022-10-13T18:21:27.514Z,14.90
2022-10-13T18:24:01.646Z,15.23
2022-10-13T18:26:36.717Z,15.45
2022-10-13T18:29:05.130Z,16.23
2022-10-13T18:31:33.861Z,18.05
2022-10-13T18:34:06.384Z,18.08
2022-10-13T18:36:38.841Z,17.30
2022-10-13T18:41:39.589Z,18.75
2022-10-13T18:44:10.449Z,19.40
2022-10-13T18:46:38.286Z,19.17
2022-10-13T18:49:06.870Z,18.45
2022-10-13T18:51:36.214Z,19.85
2022-10-13T18:54:05.612Z,20.05
2022-10-13T18:56:33.522Z,19.52
2022-10-13T18:59:01.663Z,20.23
2022-10-13T19:01:31.465Z,20.30
2022-10-13T19:04:00.402Z,21.52
2022-10-13T19:06:30.355Z,19.25
2022-10-13T19:09:01.916Z,20.70
2022-10-13T19:11:29.513Z,21.45
2022-10-13T19:13:59.371Z,20.38
2022-10-13T19:16:28.138Z,20.60
2022-10-13T19:18:54.998Z,20.77
2022-10-13T19:21:22.808Z,21.33
2022-10-13T19:23:54.133Z,20.08
2022-10-13T19:26:23.736Z,20.48
2022-10-13T19:28:58.417Z,20.35
2022-10-13T19:31:26.497Z,21.42
2022-10-13T19:34:01.931Z,20.63
2022-10-13T19:36:32.429Z,20.85
2022-10-13T19:39:01.902Z,20.60
2022-10-13T19:41:31.192Z,20.55
2022-10-13T19:44:02.409Z,22.45
2022-10-13T19:46:39.213Z,21.88
2022-10-13T19:49:05.961Z,21.63
2022-10-13T19:51:33.851Z,21.48
2022-10-13T19:54:02.077Z,21.52
2022-10-13T19:56:31.568Z,21.20
2022-10-13T19:58:58.895Z,23.40
2022-10-13T20:01:25.435Z,23.73
2022-10-13T20:03:55.180Z,22.45
2022-10-13T20:06:22.298Z,22.45
2022-10-13T20:08:49.336Z,22.95
2022-10-13T20:11:23.813Z,21.77
2022-10-13T20:13:59.817Z,22.70
2022-10-13T20:16:26.412Z,23.25
2022-10-13T20:18:56.645Z,23.92
2022-10-13T20:21:24.411Z,23.00
2022-10-13T20:23:54.576Z,22.08
2022-10-13T20:26:22.131Z,23.33
2022-10-13T20:28:50.443Z,22.23
2022-10-13T20:31:19.564Z,22.48
2022-10-13T20:33:47.078Z,24.38
2022-10-13T20:36:38.283Z,22.60
2022-10-13T20:39:05.662Z,22.20
2022-10-13T20:41:33.193Z,22.33
2022-10-13T20:44:02.460Z,23.08
2022-10-13T20:46:30.890Z,21.73
2022-10-13T20:49:10.409Z,23.40
2022-10-13T20:51:38.069Z,24.55
2022-10-13T20:54:10.104Z,25.35
2022-10-13T20:56:36.720Z,25.23
2022-10-13T20:59:05.470Z,25.75
2022-10-13T21:01:32.575Z,26.02
2022-10-13T21:04:24.335Z,25.88
2022-10-13T21:06:51.944Z,25.27
2022-10-13T21:09:18.542Z,26.00
2022-10-13T21:11:45.020Z,26.23
2022-10-13T21:14:14.492Z,25.50
2022-10-13T21:16:41.009Z,26.90
2022-10-13T21:19:10.947Z,26.65
2022-10-13T21:21:37.866Z,27.45
2022-10-13T21:24:08.141Z,25.77
2022-10-13T21:26:35.340Z,27.55
2022-10-13T21:29:02.231Z,27.50
2022-10-13T21:31:30.313Z,26.25
2022-10-13T21:33:58.905Z,27.58
2022-10-13T21:36:30.656Z,26.55
2022-10-13T21:39:02.691Z,27.70
2022-10-13T21:41:29.180Z,26.73
2022-10-13T21:43:58.897Z,26.40
2022-10-13T21:46:32.084Z,26.58
2022-10-13T21:49:00.798Z,25.95
2022-10-13T21:51:30.166Z,28.00
2022-10-13T21:54:01.391Z,26.25
2022-10-13T21:56:30.480Z,26.88
2022-10-13T21:58:59.005Z,25.70
2022-10-13T22:01:25.825Z,24.73
2022-10-13T22:03:58.376Z,24.48
2022-10-13T22:08:57.145Z,24.33
2022-10-13T22:11:26.945Z,25.25
2022-10-13T22:13:57.771Z,24.77
2022-10-13T22:16:30.804Z,24.80
2022-10-13T22:18:58.246Z,24.58
2022-10-13T22:21:27.930Z,23.63
2022-10-13T22:24:01.434Z,24.42
2022-10-13T22:26:30.458Z,24.05
2022-10-13T22:28:58.052Z,25.67
2022-10-13T22:31:25.100Z,24.10
2022-10-13T22:34:01.431Z,23.13
2022-10-13T22:36:28.050Z,24.90
2022-10-13T22:39:02.735Z,26.42
2022-10-13T22:41:31.512Z,25.52
2022-10-13T22:44:01.538Z,25.08
2022-10-13T22:46:32.111Z,25.85
2022-10-13T22:48:59.000Z,25.05
2022-10-13T22:51:27.326Z,25.85
2022-10-13T22:53:57.406Z,24.33
2022-10-13T22:56:29.442Z,24.15
2022-10-13T22:59:15.022Z,25.02
2022-10-13T23:01:43.647Z,24.67
2022-10-13T23:04:14.741Z,24.92
2022-10-13T23:06:41.183Z,25.80
2022-10-13T23:09:11.921Z,24.20
2022-10-13T23:11:38.867Z,24.55
2022-10-13T23:14:08.747Z,24.48
2022-10-13T23:16:35.603Z,24.27
2022-10-13T23:19:02.158Z,24.63
2022-10-13T23:21:29.782Z,25.08
2022-10-13T23:24:02.726Z,23.92
2022-10-13T23:26:31.408Z,24.95
2022-10-13T23:28:58.631Z,24.00
2022-10-13T23:31:26.483Z,24.15
2022-10-13T23:33:55.384Z,23.33
2022-10-13T23:36:26.019Z,23.92
2022-10-13T23:39:02.312Z,25.15
2022-10-13T23:41:29.362Z,23.27
2022-10-13T23:43:58.317Z,24.38
2022-10-13T23:46:25.210Z,23.63
2022-10-13T23:48:52.553Z,22.15
2022-10-13T23:51:21.598Z,21.95
2022-10-13T23:53:55.331Z,21.83
2022-10-13T23:56:22.502Z,22.05
2022-10-13T23:58:49.433Z,22.50
